Terminal Aerodrome Forecast
Issued by NWS

Home | Current Version | Previous Version | Text Only | Print | Product List | Glossary On
Versions: 1 2 3 4 5 6 7 8 9 10 11 12 13 14 15 16
000
FTUS43 KGRB 251136
TAFMTW
TAF
KMTW 251136Z 2512/2612 27009KT P6SM BKN025 OVC070
     FM251400 31014G20KT P6SM SCT030 BKN045
      TEMPO 2514/2517 BKN030
     FM260000 34009KT P6SM SCT040 BKN060
     FM260300 33007KT P6SM SCT060=

USA.gov is the U.S. government's official web portal to all federal, state and local government web resources and services.